createdAt,value
2022-11-16T06:02:51.585Z,10.07
2022-11-16T06:05:25.127Z,12.10
2022-11-16T06:07:54.355Z,12.40
2022-11-16T06:10:23.508Z,11.87
2022-11-16T06:12:53.976Z,11.93
2022-11-16T06:15:29.630Z,12.50
2022-11-16T06:17:59.208Z,11.50
2022-11-16T06:20:27.594Z,12.00
2022-11-16T06:23:17.816Z,12.17
2022-11-16T06:26:33.321Z,11.00
2022-11-16T06:29:54.716Z,11.97
2022-11-16T06:46:30.593Z,10.80
2022-11-16T06:52:26.675Z,11.00
2022-11-16T06:54:55.572Z,10.20
2022-11-16T07:00:27.927Z,9.80
2022-11-16T07:03:09.376Z,10.00
2022-11-16T07:06:09.972Z,8.97
2022-11-16T07:08:44.008Z,8.63
2022-11-16T07:11:21.551Z,10.40
2022-11-16T07:13:50.833Z,10.03
2022-11-16T07:16:21.262Z,10.73
2022-11-16T07:21:45.654Z,12.60
2022-11-16T07:24:19.113Z,12.00
2022-11-16T07:26:48.633Z,13.37
2022-11-16T07:29:21.870Z,11.57
2022-11-16T07:32:10.791Z,12.82
2022-11-16T07:35:02.929Z,13.93
2022-11-16T07:37:35.632Z,12.57
2022-11-16T07:40:06.157Z,14.70
2022-11-16T07:42:35.204Z,12.23
2022-11-16T07:45:27.012Z,13.60
2022-11-16T07:48:00.208Z,13.93
2022-11-16T07:51:05.748Z,14.17
2022-11-16T07:53:42.577Z,14.23
2022-11-16T07:56:12.181Z,14.10
2022-11-16T07:58:42.202Z,13.93
2022-11-16T08:01:12.576Z,13.40
2022-11-16T08:03:42.053Z,13.00
2022-11-16T08:06:14.486Z,12.60
2022-11-16T08:08:46.317Z,12.00
2022-11-16T08:11:15.267Z,11.57
2022-11-16T08:13:44.798Z,11.50
2022-11-16T08:16:15.266Z,11.00
2022-11-16T08:18:46.311Z,11.63
2022-11-16T08:21:18.846Z,10.50
2022-11-16T08:23:52.670Z,11.40
2022-11-16T08:26:25.685Z,12.07
2022-11-16T08:28:59.718Z,11.17
2022-11-16T08:31:31.982Z,10.07
2022-11-16T08:34:14.087Z,10.97
2022-11-16T08:36:46.032Z,10.73
2022-11-16T08:39:15.977Z,8.43
2022-11-16T08:41:44.557Z,7.87
2022-11-16T08:44:14.341Z,8.60
2022-11-16T08:46:46.598Z,8.70
2022-11-16T08:49:30.534Z,8.07
2022-11-16T08:51:59.760Z,9.33
2022-11-16T08:54:32.445Z,8.53
2022-11-16T08:57:00.957Z,8.13
2022-11-16T08:59:31.763Z,7.97
2022-11-16T09:02:06.657Z,8.43
2022-11-16T09:04:37.180Z,7.15
2022-11-16T09:07:06.054Z,6.03
2022-11-16T09:09:37.250Z,5.77
2022-11-16T09:12:06.391Z,4.50
2022-11-16T09:14:35.116Z,4.20
2022-11-16T09:17:03.881Z,4.03
2022-11-16T09:19:32.421Z,4.00
2022-11-16T09:22:01.153Z,4.50
2022-11-16T09:24:29.531Z,4.10
2022-11-16T09:27:01.406Z,4.10
2022-11-16T09:29:31.071Z,3.90
2022-11-16T09:31:59.702Z,4.38
2022-11-16T09:34:28.511Z,3.63
2022-11-16T09:36:57.251Z,4.07
2022-11-16T09:39:31.014Z,4.53
2022-11-16T09:42:15.107Z,4.60
2022-11-16T09:45:00.155Z,3.97
2022-11-16T09:47:41.436Z,4.10
2022-11-16T09:50:29.134Z,4.50
2022-11-16T09:53:01.209Z,4.37
2022-11-16T09:55:37.198Z,5.07
2022-11-16T09:58:16.355Z,4.07
2022-11-16T10:00:50.055Z,3.87
2022-11-16T10:03:19.409Z,3.73
2022-11-16T10:05:54.546Z,3.10
2022-11-16T10:08:30.703Z,3.23
2022-11-16T10:11:09.932Z,3.10
2022-11-16T10:13:47.927Z,2.10
2022-11-16T10:16:24.067Z,2.43
2022-11-16T10:18:59.822Z,3.00
2022-11-16T10:21:40.712Z,2.37
2022-11-16T10:24:26.603Z,2.10
2022-11-16T10:27:06.938Z,1.87
2022-11-16T10:29:49.659Z,2.20
2022-11-16T10:32:26.081Z,2.03
2022-11-16T10:34:55.968Z,1.83
2022-11-16T10:37:29.328Z,2.10
2022-11-16T10:39:57.542Z,2.47
2022-11-16T10:42:33.370Z,2.43
2022-11-16T10:45:14.565Z,2.00
2022-11-16T10:47:50.143Z,2.33
2022-11-16T10:50:33.033Z,2.28
2022-11-16T10:53:01.964Z,1.97
2022-11-16T10:55:30.846Z,1.93
2022-11-16T10:58:01.628Z,1.70
2022-11-16T11:00:40.223Z,2.10
2022-11-16T11:03:10.864Z,3.00
2022-11-16T11:05:49.398Z,2.00
2022-11-16T11:08:27.633Z,2.10
2022-11-16T11:11:03.204Z,2.00
2022-11-16T11:13:34.825Z,1.70
2022-11-16T11:16:19.369Z,2.20
2022-11-16T11:18:51.610Z,1.73
2022-11-16T11:21:24.448Z,2.20
2022-11-16T11:24:10.543Z,1.50
2022-11-16T11:26:50.463Z,2.03
2022-11-16T11:29:25.298Z,1.90
2022-11-16T11:32:02.233Z,1.70
2022-11-16T11:34:33.888Z,2.17
2022-11-16T11:37:03.744Z,2.20
2022-11-16T11:39:35.047Z,1.90
2022-11-16T11:42:24.552Z,1.63
2022-11-16T11:44:59.534Z,2.07
2022-11-16T11:48:02.965Z,2.45
2022-11-16T11:50:51.702Z,2.03
2022-11-16T11:53:38.986Z,1.70
2022-11-16T11:56:11.349Z,1.80
2022-11-16T11:58:41.940Z,1.80
2022-11-16T12:01:49.499Z,1.60
2022-11-16T12:04:45.028Z,3.13
2022-11-16T12:07:26.974Z,1.87
2022-11-16T12:10:03.212Z,1.83
2022-11-16T12:12:43.241Z,2.10
2022-11-16T12:15:34.282Z,1.60
2022-11-16T12:18:19.453Z,2.00
2022-11-16T12:20:58.679Z,2.33
2022-11-16T12:23:51.169Z,1.87
2022-11-16T12:26:29.072Z,1.90
2022-11-16T12:29:11.172Z,1.60
2022-11-16T12:31:59.258Z,2.73
2022-11-16T12:34:38.524Z,1.80
2022-11-16T12:37:16.474Z,1.80
2022-11-16T12:39:50.342Z,1.80
2022-11-16T12:42:38.792Z,2.03
2022-11-16T12:45:32.585Z,1.80
2022-11-16T12:48:19.268Z,1.63
2022-11-16T12:50:58.192Z,1.92
2022-11-16T12:53:48.460Z,1.70
2022-11-16T12:56:25.392Z,1.47
2022-11-16T12:59:15.271Z,1.70
2022-11-16T13:01:56.244Z,1.93
2022-11-16T13:04:34.275Z,1.60
2022-11-16T13:07:11.242Z,2.30
2022-11-16T13:09:44.896Z,1.50
2022-11-16T13:12:18.256Z,2.77
2022-11-16T13:14:50.008Z,1.80
2022-11-16T13:17:23.935Z,1.60
2022-11-16T13:20:14.258Z,1.57
2022-11-16T13:22:51.608Z,2.00
2022-11-16T13:25:27.330Z,1.83
2022-11-16T13:28:01.658Z,1.20
2022-11-16T13:30:42.241Z,1.40
2022-11-16T13:33:29.302Z,1.57
2022-11-16T13:35:58.607Z,1.40
2022-11-16T13:39:00.001Z,1.67
2022-11-16T13:41:32.918Z,1.70
2022-11-16T13:44:02.648Z,1.75
2022-11-16T13:46:55.407Z,2.13
2022-11-16T13:49:32.203Z,1.50
2022-11-16T13:52:22.178Z,1.67
2022-11-16T13:54:55.488Z,1.60
2022-11-16T13:57:28.786Z,1.80
2022-11-16T14:00:12.025Z,1.50
2022-11-16T14:02:42.413Z,1.90
2022-11-16T14:05:38.369Z,1.70
2022-11-16T14:08:40.539Z,1.40
2022-11-16T14:11:30.485Z,1.37
2022-11-16T14:14:02.306Z,1.50
2022-11-16T14:16:50.098Z,1.67
2022-11-16T14:19:57.100Z,1.43
2022-11-16T14:22:39.859Z,1.77
2022-11-16T14:25:33.304Z,1.70
2022-11-16T15:14:42.668Z,1.70
2022-11-16T15:18:17.923Z,1.80
2022-11-16T15:25:27.119Z,1.97
2022-11-16T15:27:57.206Z,1.60
2022-11-16T15:30:34.353Z,2.00
2022-11-16T15:33:05.194Z,2.07
2022-11-16T15:35:35.686Z,1.83
2022-11-16T16:12:53.853Z,1.70
2022-11-16T16:15:24.803Z,2.23
2022-11-16T16:18:12.690Z,1.90
2022-11-16T16:20:49.465Z,1.83
2022-11-16T16:23:26.798Z,2.10
2022-11-16T16:25:56.443Z,1.80
2022-11-16T16:28:24.742Z,1.73
2022-11-16T16:30:53.895Z,1.63
2022-11-16T16:33:28.499Z,2.30
2022-11-16T16:35:56.871Z,1.50
2022-11-16T16:38:25.012Z,2.00
2022-11-16T16:40:53.150Z,2.00
2022-11-16T16:43:22.681Z,1.73
2022-11-16T16:45:52.005Z,1.60
2022-11-16T16:48:22.977Z,1.80
2022-11-16T16:50:51.491Z,1.67
2022-11-16T16:53:20.441Z,1.83
2022-11-16T16:55:49.044Z,1.97
2022-11-16T16:58:17.606Z,1.93
2022-11-16T17:00:49.088Z,1.80
2022-11-16T17:03:17.355Z,1.80
2022-11-16T17:05:45.799Z,1.50
2022-11-16T17:08:13.945Z,1.80
2022-11-16T17:10:42.173Z,2.00
2022-11-16T17:13:11.111Z,1.77
2022-11-16T17:15:42.161Z,1.60
2022-11-16T17:18:11.717Z,2.10
2022-11-16T17:20:45.149Z,2.00
2022-11-16T17:23:13.530Z,2.10
2022-11-16T17:25:41.692Z,1.90
2022-11-16T17:28:11.408Z,2.20
2022-11-16T17:30:39.552Z,1.87
2022-11-16T17:33:58.615Z,2.05
2022-11-16T17:36:36.081Z,2.10
2022-11-16T17:39:06.176Z,2.37
2022-11-16T17:41:34.292Z,2.20
2022-11-16T17:44:02.390Z,2.00
2022-11-16T17:46:30.626Z,1.90
2022-11-16T17:49:01.640Z,1.93
2022-11-16T17:51:30.676Z,2.53
2022-11-16T17:54:00.368Z,1.80
2022-11-16T17:56:29.260Z,2.50
2022-11-16T17:58:58.487Z,2.10
2022-11-16T18:01:27.190Z,2.87
2022-11-16T18:03:55.539Z,2.60
2022-11-16T18:06:25.701Z,2.10
2022-11-16T18:08:54.245Z,2.87
2022-11-16T18:11:25.440Z,2.28
2022-11-16T18:13:54.963Z,2.33
2022-11-16T18:16:24.722Z,2.87
2022-11-16T18:18:58.426Z,2.23
2022-11-16T18:21:27.265Z,1.70
2022-11-16T18:23:55.635Z,2.20
2022-11-16T18:26:25.445Z,2.10
2022-11-16T18:28:54.298Z,1.90
2022-11-16T18:31:23.766Z,1.48
2022-11-16T18:33:52.824Z,1.70
2022-11-16T18:36:22.146Z,1.60
2022-11-16T18:38:50.314Z,1.80
2022-11-16T18:41:20.876Z,2.05
2022-11-16T18:43:52.100Z,2.07
2022-11-16T18:46:20.888Z,2.47
2022-11-16T18:48:52.041Z,2.80
2022-11-16T18:51:21.618Z,2.25
2022-11-16T18:53:58.335Z,2.53
2022-11-16T18:56:26.925Z,2.50
2022-11-16T18:58:55.157Z,2.00
2022-11-16T19:01:25.093Z,2.33
2022-11-16T19:03:53.949Z,2.40
2022-11-16T19:06:23.111Z,2.20
2022-11-16T19:08:56.348Z,1.83
2022-11-16T19:11:27.077Z,2.10
2022-11-16T19:13:56.982Z,1.70
2022-11-16T19:16:26.110Z,1.77
2022-11-16T19:18:54.384Z,2.40
2022-11-16T19:21:26.149Z,1.83
2022-11-16T19:23:56.448Z,1.93
2022-11-16T19:26:27.963Z,1.83
2022-11-16T19:28:56.543Z,1.77
2022-11-16T19:31:26.141Z,2.03
2022-11-16T19:34:04.120Z,1.60
2022-11-16T19:36:44.008Z,1.60
2022-11-16T19:39:26.156Z,1.50
2022-11-16T19:42:00.045Z,1.90
2022-11-16T19:44:35.812Z,1.90
2022-11-16T19:47:29.400Z,1.83
2022-11-16T19:50:00.117Z,2.10
2022-11-16T19:52:32.396Z,1.80
2022-11-16T19:55:04.346Z,1.77
2022-11-16T19:57:34.986Z,1.87
2022-11-16T20:00:04.119Z,1.40
2022-11-16T20:02:33.494Z,2.40
2022-11-16T20:05:01.743Z,1.90
2022-11-16T20:07:31.105Z,1.80
2022-11-16T20:09:59.508Z,2.33
2022-11-16T20:12:33.991Z,1.80
2022-11-16T20:15:03.199Z,2.03
2022-11-16T20:17:31.749Z,2.10
2022-11-16T20:20:00.364Z,1.47
2022-11-16T20:22:29.501Z,1.57
2022-11-16T20:24:57.787Z,1.50
2022-11-16T20:27:25.999Z,2.10
2022-11-16T20:29:55.491Z,1.33
2022-11-16T20:32:25.049Z,1.80
2022-11-16T20:34:55.932Z,1.30
2022-11-16T20:37:24.428Z,1.50
2022-11-16T20:39:57.362Z,1.47
2022-11-16T20:42:26.282Z,1.50
2022-11-16T20:44:55.854Z,1.60
2022-11-16T20:47:23.941Z,1.80
2022-11-16T20:49:52.060Z,1.50
2022-11-16T20:52:20.196Z,2.40
2022-11-16T20:54:48.332Z,2.23
2022-11-16T20:57:16.542Z,1.90
2022-11-16T20:59:44.696Z,1.37
2022-11-16T21:02:14.263Z,1.60
2022-11-16T21:04:42.420Z,1.87
2022-11-16T21:07:10.940Z,1.30
2022-11-16T21:09:53.156Z,1.80
2022-11-16T21:12:50.113Z,1.77
2022-11-16T21:15:29.687Z,1.80
2022-11-16T21:22:22.503Z,1.63
2022-11-16T21:24:51.188Z,1.50
2022-11-16T21:27:19.272Z,1.70
2022-11-16T21:29:47.413Z,1.60
2022-11-16T21:32:15.540Z,1.73
2022-11-16T21:34:45.664Z,1.57
2022-11-16T21:37:13.856Z,1.55
2022-11-16T21:39:41.974Z,2.00
2022-11-16T21:42:10.191Z,1.60
2022-11-16T21:44:42.810Z,1.50
2022-11-16T21:47:11.282Z,2.23
2022-11-16T21:49:59.292Z,2.03
2022-11-16T21:52:30.032Z,1.83
2022-11-16T21:55:01.587Z,1.73
2022-11-16T21:57:29.767Z,2.10
2022-11-16T21:59:57.884Z,2.10
2022-11-16T22:02:25.975Z,1.90
2022-11-16T22:05:11.589Z,2.17
2022-11-16T22:07:43.380Z,2.20
2022-11-16T22:10:13.144Z,1.80
2022-11-16T22:12:41.301Z,1.70
2022-11-16T22:15:10.257Z,1.60
2022-11-16T22:17:43.296Z,1.30
2022-11-16T22:20:12.203Z,1.60
2022-11-16T22:22:42.080Z,1.63
2022-11-16T22:25:10.716Z,1.43
2022-11-16T22:28:05.598Z,1.30
2022-11-16T22:30:27.503Z,1.23
2022-11-16T22:32:55.781Z,1.50
2022-11-16T22:35:23.892Z,1.40
2022-11-16T22:37:53.546Z,1.33
2022-11-16T22:40:21.639Z,1.20
2022-11-16T22:42:50.238Z,1.80
2022-11-16T22:45:20.895Z,1.47
2022-11-16T22:47:53.600Z,1.60
2022-11-16T22:50:24.229Z,1.73
2022-11-16T22:52:53.816Z,1.60
2022-11-16T22:55:22.140Z,1.83
2022-11-16T22:57:50.793Z,1.30
2022-11-16T23:00:19.988Z,1.60
2022-11-16T23:02:48.161Z,1.60
2022-11-16T23:05:16.516Z,1.60
2022-11-16T23:07:45.118Z,1.40
2022-11-16T23:10:15.578Z,1.80
2022-11-16T23:13:01.307Z,1.33
2022-11-16T23:15:46.708Z,1.73
2022-11-16T23:18:15.196Z,1.30
2022-11-16T23:21:00.844Z,1.50
2022-11-16T23:23:46.137Z,2.30
2022-11-16T23:26:38.521Z,1.57
2022-11-16T23:29:10.639Z,1.23
2022-11-16T23:31:39.169Z,1.60
2022-11-16T23:34:07.383Z,1.60
2022-11-16T23:36:35.562Z,1.40
2022-11-16T23:39:03.733Z,1.57
2022-11-16T23:42:05.157Z,1.40
2022-11-16T23:44:33.304Z,1.30
2022-11-16T23:47:01.499Z,1.60
2022-11-16T23:49:29.614Z,1.67
2022-11-16T23:51:57.914Z,1.60
2022-11-16T23:54:26.082Z,1.30
2022-11-16T23:56:55.683Z,1.70
2022-11-16T23:59:23.927Z,1.47
